Participated 9 times
Between 1989 and 1998
Wilfried Peeters, Belgium
Tour de France 2026 starts from Barcelona, Spain in

Stats and Facts from
Tour de France.

2026   2025   2024   2023  2022  2021  2020  2019   2018  2017   2016   2015  2014  2013   2012   2011  2010   2009   2008   2007   2006   2005   2004   2003   2002   2001   2000   1999   1998   1997  1996   1995   1994   1993   1992  1991   1990   1989   1988   1987   1986   1985   1984   1983  1982  1981   1980   1979  1978  1977   1976  1975  1974  1973   1972   1971   1970  1969   1968   1967   1966   1965  1964  1963   1962   1961   1960   1959   1958   1957  1956   1955   1954   1953   1952  1951  1950  1949   1948  1947  1939   1938   1937   1936   1935   1934   1933  1932   1931   1930  1929   1928   1927   1926  1925  1924  1923   1922   1921   1920   1919  1914   1913   1912   1911   1910  1909   1908   1907   1906  1905  1904   1903 

Tourstats
Sitemap

After stage 21 - 2025:
 16451 starters.
  5464 different riders.
  689 teams.
  2398 stages.
  470 restdays.
  466506.50 km.
  5925 abandoned riders.

Click map for 1952 route.
Facts from Tour de France 1952 Additional info and images from 1952.
  |   Stages.  |   Stage winners.  |   Days in jerseys.  |   Teams.  |   All riders.  |   All riders by age.  |   All riders from.  |  

  |   Rookies.  |   Withdrawls.  |   Average speed.  |   GC.  |   Polka  |   Green  |   White  |   Summits. (In tour)  |   Miscellaneous.  |  

Stage 7 on July 1st. 1952
Pick a stage:  1  2  3  4  5  6  7  8  9  10  11  12  13  14  15  16  17  18  19  20  21  22  23  

After stage 7:    Nello Lauredi  
  MetzNancy | Dist: 60.00km. | Winner: Fausto Coppi

Podium

Average speed for all riders in stage:  36,542 km./hr.

1
 Fausto Coppi  Italy01h 32' 59"=38,717  km/h

2
 Roger Decock  Belgium01h 33' 33"+  00:00:34 =38,482  km/h

3
 Armand Papazian  Paris01h 34' 18"+  00:01:19 =38,176  km/h

4  Giulio Bresci  Italy01h 34' 21"+  00:01:22 =38,156  km/h

5  Nello Lauredi  France01h 34' 22"+  00:01:23 =38,149  km/h

6  Wim van Est  Holland01h 34' 26"+  00:01:27 =38,122  km/h

7  Martin Metzger  Switzerland01h 34' 35"+  00:01:36 =38,062  km/h

8  Ahmed Kebaïli  North Africa01h 34' 40"+  00:01:41 =38,028  km/h

9  Fiorenzo Magni  Italy01h 34' 44"+  00:01:45 =38,001  km/h

10  Bernard Gauthier  France01h 34' 45"+  00:01:46 =37,995  km/h

11  Franco Franchi  Italy01h 34' 51"+  00:01:52 =37,955  km/h

12  Dominique Canavese  Sud Est01h 34' 56"+  00:01:57 =37,921  km/h

13  Luciano Pezzi  Italy01h 35' 12"+  00:02:13 =37,815  km/h

13  Jean Goldschmit  Luxembourg01h 35' 12"+  00:02:13 =37,815  km/h

13  Abdel-Kader Zaaf  North Africa01h 35' 12"+  00:02:13 =37,815  km/h

16  Adolphe Deledda  Nord Est-Centre01h 35' 27"+  00:02:28 =37,716  km/h

17  Antonio Gelabert  Spain01h 35' 43"+  00:02:44 =37,611  km/h

18  Adolphe Pezzuli  Sud Est01h 35' 47"+  00:02:48 =37,585  km/h

19  Andrea Carrea  Italy01h 35' 55"+  00:02:56 =37,533  km/h

20  Marcel Fernandez  North Africa01h 35' 55"+  00:02:56 =37,533  km/h

21  Raoul Remy  France01h 36' 05"+  00:03:06 =37,467  km/h

22  Gino Bartali  Italy01h 36' 10"+  00:03:11 =37,435  km/h

23  Alfredo Martini  Italy01h 36' 12"+  00:03:13 =37,422  km/h

24  Jacques Vivier  Ouest-Sud Ouest01h 36' 13"+  00:03:14 =37,416  km/h

25  Vincent Soler  North Africa01h 36' 23"+  00:03:24 =37,351  km/h

26  Alexandre Close  Belgium01h 36' 32"+  00:03:33 =37,293  km/h

26  Jean De Gribaldy  Nord Est-Centre01h 36' 32"+  00:03:33 =37,293  km/h

28  Stan Ockers  Belgium01h 36' 35"+  00:03:36 =37,274  km/h

29  José Serra Gil  Spain01h 36' 43"+  00:03:44 =37,222  km/h

30  Antonin Rolland  France01h 36' 48"+  00:03:49 =37,190  km/h

31  Jean-Baptiste Dotto  France01h 36' 56"+  00:03:57 =37,139  km/h

32  Jean Le Guilly  Ouest-Sud Ouest01h 37' 07"+  00:04:08 =37,069  km/h

33  Gilbert Bauvin  Nord Est-Centre01h 37' 13"+  00:04:14 =37,031  km/h

34  Raymond Scardin  Ouest-Sud Ouest01h 37' 18"+  00:04:19 =36,999  km/h

35  Giovanni Corrieri  Italy01h 37' 20"+  00:04:21 =36,986  km/h

36  Jean Delahaye  Ouest-Sud Ouest01h 37' 22"+  00:04:23 =36,974  km/h

37  Jean Bertaina  Sud Est01h 37' 30"+  00:04:31 =36,923  km/h

38  Wout Wagtmans  Holland01h 37' 33"+  00:04:34 =36,904  km/h

39  Jean Robic  France01h 37' 40"+  00:04:41 =36,860  km/h

39  Guy Lapébie  Ouest-Sud Ouest01h 37' 40"+  00:04:41 =36,860  km/h

41  Georges Decaux  Paris01h 37' 41"+  00:04:42 =36,854  km/h

42  Giuseppe Mirando  Sud Est01h 37' 56"+  00:04:57 =36,760  km/h

43  Fiorenzo Crippa  Italy01h 37' 58"+  00:04:59 =36,747  km/h

44  Raphaël Geminiani  France01h 38' 11"+  00:05:12 =36,666  km/h

45  Francisco Masip  Spain01h 38' 31"+  00:05:32 =36,542  km/h

46  Ettore Milano  Italy01h 38' 35"+  00:05:36 =36,517  km/h

47  Jean-Marie Cieliczka  Nord Est-Centre01h 38' 37"+  00:05:38 =36,505  km/h

47  Lucien Teisseire  France01h 38' 37"+  00:05:38 =36,505  km/h

49  Noel Lajoie  Nord Est-Centre01h 38' 38"+  00:05:39 =36,499  km/h

50  Vincent Vitetta  Sud Est01h 38' 39"+  00:05:40 =36,493  km/h

51  Marcel Dussault  Nord Est-Centre01h 38' 40"+  00:05:41 =36,486  km/h

52  Marcel Huber  Switzerland01h 38' 41"+  00:05:42 =36,480  km/h

53  Michel Llorca  Sud Est01h 38' 43"+  00:05:44 =36,468  km/h

54  Gerrit Voorting  Holland01h 38' 46"+  00:05:47 =36,450  km/h

55  Roger Rossinelli  Nord Est-Centre01h 38' 54"+  00:05:55 =36,400  km/h

56  Bernardo Ruíz  Spain01h 39' 07"+  00:06:08 =36,321  km/h

57  Robert Bintz  Luxembourg01h 39' 08"+  00:06:09 =36,315  km/h

58  André Rosseel  Belgium01h 39' 10"+  00:06:11 =36,303  km/h

59  Henri Paret  North Africa01h 39' 17"+  00:06:18 =36,260  km/h

60  José Pérez  Spain01h 39' 18"+  00:06:19 =36,254  km/h

61  Gottfried Weilenmann  Switzerland01h 39' 24"+  00:06:25 =36,217  km/h

62  Maurice Neyt  Belgium01h 39' 33"+  00:06:34 =36,163  km/h

63  Jean Malléjac  Ouest-Sud Ouest01h 39' 49"+  00:06:50 =36,066  km/h

64  Thijs Roks  Holland01h 39' 50"+  00:06:51 =36,060  km/h

65  Maurice Quentin  France01h 39' 54"+  00:06:55 =36,036  km/h

65  Heinrich Spuhler  Switzerland01h 39' 54"+  00:06:55 =36,036  km/h

67  Settimo Sabbadini  Ouest-Sud Ouest01h 39' 55"+  00:06:56 =36,030  km/h

68  Rene Rotta  Sud Est01h 39' 56"+  00:06:57 =36,024  km/h

69  Pierre Molineris  Sud Est01h 39' 57"+  00:06:58 =36,018  km/h

69  Alois De Hertog  Belgium01h 39' 57"+  00:06:58 =36,018  km/h

69  Robert Vanderstockt  Belgium01h 39' 57"+  00:06:58 =36,018  km/h

72  Georges Meunier  Nord Est-Centre01h 40' 01"+  00:07:02 =35,994  km/h

73  Pierre Pardoën  Nord Est-Centre01h 40' 04"+  00:07:05 =35,976  km/h

74  Lucien Lazarides  France01h 40' 07"+  00:07:08 =35,958  km/h

75  Mario Baroni  Italy01h 40' 13"+  00:07:14 =35,922  km/h

76  Henk Faanhof  Holland01h 40' 17"+  00:07:18 =35,898  km/h

77  Jean Diederich  Luxembourg01h 40' 32"+  00:07:33 =35,809  km/h

78  Hein Van Breenen  Holland01h 40' 53"+  00:07:54 =35,685  km/h

79  Willy Kemp  Luxembourg01h 41' 04"+  00:08:05 =35,620  km/h

79  Siro Bianchi  Sud Est01h 41' 04"+  00:08:05 =35,620  km/h

81  Eugène Telotte  Paris01h 41' 09"+  00:08:10 =35,591  km/h

82  José Gil Sole  Spain01h 41' 22"+  00:08:23 =35,515  km/h

83  Paul Giguet  Sud Est01h 41' 23"+  00:08:24 =35,509  km/h

84  Jacques Marinelli  Paris01h 41' 25"+  00:08:26 =35,497  km/h

85  Johny Goedert  Luxembourg01h 41' 39"+  00:08:40 =35,416  km/h

86  Hans Dekkers  Holland01h 41' 43"+  00:08:44 =35,392  km/h

87  Eduard Van Ende  Belgium01h 41' 48"+  00:08:49 =35,363  km/h

88  Jan Nolten  Holland01h 41' 53"+  00:08:54 =35,335  km/h

89  Jacques Renaud  Paris01h 41' 57"+  00:08:58 =35,311  km/h

90  Robert Bonnaventure  France01h 42' 00"+  00:09:01 =35,294  km/h

91  Gino Sciardis  Paris01h 42' 09"+  00:09:10 =35,242  km/h

92  Carlo Lafranchi  Switzerland01h 42' 18"+  00:09:19 =35,191  km/h

93  Andrès Trobat  Spain01h 42' 19"+  00:09:20 =35,185  km/h

94  Marcel Zelasco  North Africa01h 42' 21"+  00:09:22 =35,173  km/h

95  Alain Moineau  Ouest-Sud Ouest01h 42' 33"+  00:09:34 =35,105  km/h

96  André Bernard  Ouest-Sud Ouest01h 42' 44"+  00:09:45 =35,042  km/h

97  Henri Van Kerckhove  Belgium01h 43' 42"+  00:10:43 =34,716  km/h

98  Walter Diggelmann  Switzerland01h 43' 43"+  00:10:44 =34,710  km/h

99  Gerard Guercy  North Africa01h 44' 55"+  00:11:56 =34,313  km/h


Todays birthdays.

1889 • Adolphe Landon
1890 • Jules Lebreton
1904 • Julien Grujon
1909 • Erich Metze
1926 • Giovanni Rossi
1928 • Serge Blusson
1928 • Alois Vansteenkiste
1931 • André Dupré
1934 • Alfred Rüegg
1962 • Francisco Espinosa
1962 • Paul Kimmage
1963 • Federico Muñoz
1966 • Andrea Tafi
1971 • Emmanuel Magnien
1973 • Paolo Savoldelli
1985 • Mikhail Ignatyev

 

Optimized for Chrome - Edge
and Opera browsers.